Time;durP1;ratioP1;P1;durP2;ratioP2;P2;SDS_P1;SDS_P2;PMS_P1;PMS_P2;Temp;Humidity;BMP_temperature;BMP_pressure;BME280_temperature;BME280_humidity;BME280_pressure;Samples;Min_cycle;Max_cycle;Signal;HPM_P1;HPM_P2
2022/10/30 00:00:50;;;;;;;14.68;10.88;;;;;;;11.97;92.62;100754.77;1821576;78;21138;-84
2022/10/30 00:03:17;;;;;;;13.53;11.45;;;;;;;11.98;92.57;100751.66;1821443;78;21005;-83
2022/10/30 00:05:48;;;;;;;11.88;10.00;;;;;;;11.98;92.55;100752.98;1821630;78;20978;-85
2022/10/30 00:08:17;;;;;;;10.48;9.40;;;;;;;11.98;92.54;100745.96;1821793;78;20848;-83
2022/10/30 00:10:45;;;;;;;9.73;8.70;;;;;;;11.98;92.52;100737.20;1821670;78;20911;-84
2022/10/30 00:13:12;;;;;;;12.85;9.63;;;;;;;11.96;92.51;100732.07;1821683;78;21769;-85
2022/10/30 00:15:49;;;;;;;11.63;9.25;;;;;;;11.96;92.52;100729.89;1821494;78;20991;-84
2022/10/30 00:18:16;;;;;;;12.58;10.65;;;;;;;11.95;92.53;100729.05;1821597;78;20970;-84
2022/10/30 00:20:42;;;;;;;12.53;9.73;;;;;;;11.95;92.58;100725.59;1821526;78;20892;-83
2022/10/30 00:23:09;;;;;;;13.85;11.28;;;;;;;11.95;92.57;100714.59;1821635;78;20922;-83
2022/10/30 00:25:36;;;;;;;13.53;10.20;;;;;;;11.94;92.58;100712.93;1821642;78;21153;-84
2022/10/30 00:28:04;;;;;;;13.38;9.58;;;;;;;11.95;92.61;100716.39;1821534;78;20915;-83
2022/10/30 00:30:32;;;;;;;11.33;8.53;;;;;;;11.95;92.59;100717.70;1821550;78;20919;-84
2022/10/30 00:32:59;;;;;;;8.95;8.08;;;;;;;11.95;92.61;100719.02;1822098;78;20928;-83
2022/10/30 00:35:25;;;;;;;12.35;8.88;;;;;;;11.95;92.61;100711.14;1822012;78;20828;-84
2022/10/30 00:37:52;;;;;;;10.68;8.50;;;;;;;11.95;92.68;100704.09;1821595;78;21807;-83
2022/10/30 00:40:18;;;;;;;12.18;8.53;;;;;;;11.96;92.77;100706.23;1821543;78;20958;-84
2022/10/30 00:42:45;;;;;;;10.80;8.78;;;;;;;11.93;92.81;100699.40;1821811;78;20910;-84
2022/10/30 00:45:13;;;;;;;11.18;8.93;;;;;;;11.96;92.82;100678.64;1824654;77;20973;-83
2022/10/30 00:47:47;;;;;;;9.90;7.92;;;;;;;11.97;92.86;100682.50;1824425;77;20951;-83
2022/10/30 00:50:27;;;;;;;11.80;8.48;;;;;;;11.98;92.91;100679.39;1824493;77;21204;-84
2022/10/30 00:53:07;;;;;;;12.23;9.13;;;;;;;11.98;92.94;100666.25;1824463;78;20959;-82
2022/10/30 00:55:44;;;;;;;12.68;8.28;;;;;;;12.00;92.94;100671.77;1792365;78;20986;-84
2022/10/30 00:58:14;;;;;;;11.57;7.92;;;;;;;11.99;92.93;100667.95;1820421;77;20884;-83
2022/10/30 01:00:45;;;;;;;9.78;8.58;;;;;;;12.00;92.93;100660.42;1824254;77;20895;-83
2022/10/30 01:03:11;;;;;;;11.55;9.03;;;;;;;12.01;92.91;100651.61;1824328;77;21098;-84
2022/10/30 01:05:39;;;;;;;13.32;9.73;;;;;;;12.01;92.90;100645.04;1824347;77;20837;-82
2022/10/30 01:08:06;;;;;;;13.62;9.23;;;;;;;12.00;92.89;100633.66;1824390;77;20904;-83
2022/10/30 01:10:33;;;;;;;12.23;7.92;;;;;;;12.00;92.88;100632.34;1824589;77;20955;-82
2022/10/30 01:13:01;;;;;;;11.55;8.50;;;;;;;12.00;92.86;100622.31;1823682;78;21363;-83
2022/10/30 01:15:33;;;;;;;10.65;8.55;;;;;;;12.00;92.91;100627.56;1821729;78;21170;-80
2022/10/30 01:18:24;;;;;;;9.45;7.83;;;;;;;11.99;92.96;100635.09;1816744;78;21420;-83
2022/10/30 01:20:57;;;;;;;11.80;8.25;;;;;;;11.98;93.02;100636.89;1822103;78;20879;-84
2022/10/30 01:23:35;;;;;;;11.85;9.13;;;;;;;11.98;93.10;100642.14;1821588;78;20852;-84
2022/10/30 01:26:22;;;;;;;8.85;7.87;;;;;;;11.98;93.09;100640.83;1821605;78;20883;-84
2022/10/30 01:29:18;;;;;;;9.75;8.75;;;;;;;11.98;93.09;100647.41;1821504;78;21591;-84
2022/10/30 01:32:13;;;;;;;15.60;9.48;;;;;;;11.99;93.08;100637.25;1821512;78;21320;-84
2022/10/30 01:35:29;;;;;;;10.45;7.90;;;;;;;12.00;93.10;100639.39;1821619;78;20871;-83
2022/10/30 01:38:20;;;;;;;10.25;8.30;;;;;;;12.00;93.09;100641.55;1821444;78;20856;-84
2022/10/30 01:40:49;;;;;;;11.33;7.65;;;;;;;12.01;93.09;100630.59;1822902;78;21401;-84
2022/10/30 01:43:15;;;;;;;11.70;8.15;;;;;;;12.01;93.06;100641.94;1797616;78;21060;-84
2022/10/30 01:46:13;;;;;;;15.03;9.33;;;;;;;12.00;93.09;100636.28;1825182;78;20884;-82
2022/10/30 01:49:16;;;;;;;10.00;7.80;;;;;;;12.01;93.07;100635.84;1825131;78;20994;-84
2022/10/30 01:52:14;;;;;;;13.00;9.65;;;;;;;12.01;93.10;100627.95;1825153;78;20892;-82
2022/10/30 01:55:04;;;;;;;11.75;8.78;;;;;;;12.01;93.09;100631.90;1826447;78;20963;-83
2022/10/30 01:58:03;;;;;;;16.17;9.05;;;;;;;12.00;93.07;100619.69;1826314;78;21389;-84
2022/10/30 02:00:30;;;;;;;9.23;8.13;;;;;;;11.99;93.06;100604.88;1824984;78;20919;-85
2022/10/30 02:02:57;;;;;;;13.03;8.25;;;;;;;11.98;93.04;100609.30;1825217;78;20906;-84
2022/10/30 02:05:43;;;;;;;9.23;8.30;;;;;;;11.99;93.01;100606.19;1824836;78;20954;-83
2022/10/30 02:08:10;;;;;;;13.50;8.18;;;;;;;11.98;93.07;100596.16;1825041;78;20891;-84
2022/10/30 02:10:38;;;;;;;16.05;9.03;;;;;;;11.98;93.04;100603.17;1825010;78;21774;-84
2022/10/30 02:13:04;;;;;;;12.73;8.78;;;;;;;11.98;93.00;100603.17;1824975;78;21364;-82
2022/10/30 02:15:32;;;;;;;9.10;8.15;;;;;;;11.98;92.95;100621.12;1825005;78;21451;-84
2022/10/30 02:18:00;;;;;;;9.93;8.43;;;;;;;11.99;92.85;100618.84;1825448;78;20923;-84
2022/10/30 02:20:28;;;;;;;12.88;9.28;;;;;;;12.00;92.78;100618.38;1824971;78;21041;-84
2022/10/30 02:22:54;;;;;;;15.48;9.85;;;;;;;12.00;92.75;100621.00;1824906;78;21234;-83
2022/10/30 02:25:21;;;;;;;10.20;8.65;;;;;;;12.00;92.72;100630.20;1824915;78;20944;-84
2022/10/30 02:27:49;;;;;;;13.22;9.75;;;;;;;11.98;92.70;100617.17;1825136;78;20994;-84
2022/10/30 02:30:18;;;;;;;10.25;9.15;;;;;;;11.97;92.71;100626.47;1825007;78;21049;-83
2022/10/30 02:32:44;;;;;;;12.78;8.75;;;;;;;11.96;92.68;100623.00;1825080;78;20844;-84
2022/10/30 02:35:12;;;;;;;12.35;9.98;;;;;;;11.96;92.67;100623.00;1824971;78;21110;-84
2022/10/30 02:37:40;;;;;;;12.93;9.58;;;;;;;11.95;92.61;100612.58;1825060;78;21346;-84
2022/10/30 02:40:07;;;;;;;12.63;10.48;;;;;;;11.94;92.59;100620.95;1824638;78;21396;-83
2022/10/30 02:42:35;;;;;;;12.63;9.45;;;;;;;11.94;92.61;100621.39;1821503;78;20867;-83
2022/10/30 02:45:03;;;;;;;11.90;8.88;;;;;;;11.95;92.60;100617.84;1821636;78;20840;-81
2022/10/30 02:47:32;;;;;;;11.35;9.33;;;;;;;11.96;92.59;100613.80;1821578;78;20935;-85
2022/10/30 02:49:59;;;;;;;13.65;10.72;;;;;;;11.98;92.54;100615.86;1821542;78;20916;-84
2022/10/30 02:52:27;;;;;;;11.75;8.95;;;;;;;12.00;92.44;100611.31;1821507;78;20906;-84
2022/10/30 02:54:53;;;;;;;12.35;9.13;;;;;;;12.03;92.38;100610.30;1821915;78;20852;-85
2022/10/30 02:57:20;;;;;;;10.05;8.68;;;;;;;12.06;92.22;100603.52;1823445;78;20868;-84
2022/10/30 02:59:47;;;;;;;10.25;8.25;;;;;;;12.09;91.98;100599.83;1824970;77;21163;-84
2022/10/30 03:02:13;;;;;;;12.78;10.00;;;;;;;12.12;91.71;100603.59;1824714;77;20895;-83
2022/10/30 03:04:40;;;;;;;12.70;9.88;;;;;;;12.13;91.48;100591.64;1824912;78;20990;-82
2022/10/30 03:07:06;;;;;;;11.15;9.75;;;;;;;12.14;91.22;100599.91;1823825;78;20884;-85
2022/10/30 03:09:34;;;;;;;11.22;9.18;;;;;;;12.19;91.08;100594.34;1821651;78;20848;-84
2022/10/30 03:12:04;;;;;;;9.48;7.62;;;;;;;12.22;90.79;100591.50;1821645;78;21366;-84
2022/10/30 03:14:32;;;;;;;10.63;9.15;;;;;;;12.23;90.50;100590.09;1821540;78;20907;-84
2022/10/30 03:16:59;;;;;;;13.68;8.88;;;;;;;12.26;90.28;100590.83;1821551;78;20950;-82
2022/10/30 03:19:26;;;;;;;13.05;9.35;;;;;;;12.27;90.11;100588.08;1821432;78;20915;-85
2022/10/30 03:21:54;;;;;;;12.90;9.03;;;;;;;12.31;89.91;100595.30;1821527;78;21329;-84
2022/10/30 03:24:22;;;;;;;10.15;8.78;;;;;;;12.31;89.86;100581.67;1821439;78;21261;-85
2022/10/30 03:26:49;;;;;;;11.12;8.88;;;;;;;12.32;89.99;100589.94;1821409;78;20892;-84
2022/10/30 03:29:15;;;;;;;12.15;9.38;;;;;;;12.31;90.09;100588.23;1821515;78;20848;-84
2022/10/30 03:31:44;;;;;;;13.00;10.38;;;;;;;12.32;90.13;100598.31;1821711;78;20868;-84
2022/10/30 03:34:16;;;;;;;16.17;12.78;;;;;;;12.30;90.22;100595.77;1821370;78;21393;-86
2022/10/30 03:36:42;;;;;;;14.63;11.57;;;;;;;12.30;90.25;100591.00;1821738;78;21278;-84
2022/10/30 03:39:09;;;;;;;10.70;9.60;;;;;;;12.29;90.25;100586.66;1821657;78;20954;-84
2022/10/30 03:41:37;;;;;;;8.88;7.55;;;;;;;12.29;90.25;100587.98;1821508;78;20840;-85
2022/10/30 03:44:04;;;;;;;10.88;8.83;;;;;;;12.28;90.24;100585.83;1821512;78;20848;-85
2022/10/30 03:46:30;;;;;;;11.08;8.88;;;;;;;12.28;90.20;100591.09;1821653;78;20931;-84
2022/10/30 03:48:59;;;;;;;13.22;9.50;;;;;;;12.29;90.19;100587.98;1819542;78;21189;-82
2022/10/30 03:51:26;;;;;;;11.05;9.63;;;;;;;12.29;90.19;100582.72;1821660;78;21509;-85
2022/10/30 03:53:54;;;;;;;11.90;8.58;;;;;;;12.28;90.12;100588.94;1821597;78;20852;-85
2022/10/30 03:56:20;;;;;;;14.83;8.15;;;;;;;12.28;90.02;100589.77;1821538;78;20959;-84
2022/10/30 03:58:49;;;;;;;12.23;9.15;;;;;;;12.29;89.84;100582.72;1821871;78;20907;-84
2022/10/30 04:01:17;;;;;;;35.15;30.08;;;;;;;12.31;89.71;100586.92;1821231;78;21164;-85
2022/10/30 04:03:46;;;;;;;15.13;10.58;;;;;;;12.33;89.56;100585.03;1821415;78;20876;-84
2022/10/30 04:06:14;;;;;;;14.10;10.43;;;;;;;12.35;89.29;100585.77;1821415;78;20915;-84
2022/10/30 04:08:41;;;;;;;12.65;8.98;;;;;;;12.37;89.12;100589.63;1789690;78;20927;-84
2022/10/30 04:11:10;;;;;;;17.05;11.93;;;;;;;12.39;88.99;100587.25;1821493;78;21452;-84
2022/10/30 04:13:38;;;;;;;11.93;8.78;;;;;;;12.41;88.71;100592.42;1821485;78;20954;-84
2022/10/30 04:16:05;;;;;;;12.28;9.45;;;;;;;12.43;88.46;100587.90;1821467;78;20909;-84
2022/10/30 04:18:33;;;;;;;17.27;13.28;;;;;;;12.46;88.31;100591.62;1821537;78;20844;-84
2022/10/30 04:21:00;;;;;;;14.20;9.70;;;;;;;12.48;88.14;100583.16;1821527;78;20884;-82
2022/10/30 04:23:27;;;;;;;11.10;9.53;;;;;;;12.49;87.96;100586.14;1821501;78;21384;-84
2022/10/30 04:25:55;;;;;;;15.90;9.55;;;;;;;12.51;87.76;100586.05;1821565;78;21338;-84
2022/10/30 04:28:23;;;;;;;13.25;9.98;;;;;;;12.51;87.58;100581.62;1821486;78;20915;-83
2022/10/30 04:30:51;;;;;;;13.28;11.80;;;;;;;12.52;87.42;100589.89;1821643;78;21456;-83
2022/10/30 04:33:18;;;;;;;14.63;10.78;;;;;;;12.53;87.23;100578.41;1821611;78;20974;-85
2022/10/30 04:35:46;;;;;;;17.45;11.10;;;;;;;12.52;87.12;100580.69;1821860;78;20916;-84
2022/10/30 04:38:18;;;;;;;11.55;9.28;;;;;;;12.54;86.99;100583.20;1821766;78;21886;-84
2022/10/30 04:40:46;;;;;;;12.98;10.32;;;;;;;12.53;86.95;100585.47;1821480;78;20880;-84
2022/10/30 04:43:13;;;;;;;13.25;10.35;;;;;;;12.52;86.92;100595.16;1825131;78;20922;-84
2022/10/30 04:45:40;;;;;;;14.87;10.23;;;;;;;12.51;86.90;100580.78;1825022;78;20880;-84
2022/10/30 04:48:15;;;;;;;12.60;9.95;;;;;;;12.52;86.87;100589.89;1824702;78;20876;-84
2022/10/30 04:50:43;;;;;;;17.12;11.50;;;;;;;12.51;86.83;100585.56;1825070;78;21151;-85
2022/10/30 04:53:16;;;;;;;18.92;16.62;;;;;;;12.52;86.77;100591.21;1824950;78;20971;-84
2022/10/30 04:55:45;;;;;;;14.23;10.80;;;;;;;12.53;86.71;100590.25;1824843;78;20872;-84
2022/10/30 04:58:12;;;;;;;14.40;11.05;;;;;;;12.52;86.57;100591.21;1824995;78;21342;-84
2022/10/30 05:00:41;;;;;;;15.90;12.07;;;;;;;12.54;86.60;100595.03;1824931;78;20883;-83
2022/10/30 05:03:22;;;;;;;11.15;9.88;;;;;;;12.53;86.53;100598.14;1824983;78;21223;-81
2022/10/30 05:05:59;;;;;;;18.05;12.68;;;;;;;12.55;86.52;100595.41;1825026;78;20880;-84
2022/10/30 05:08:25;;;;;;;15.35;10.72;;;;;;;12.56;86.53;100598.40;1824390;78;20954;-84
2022/10/30 05:10:53;;;;;;;13.85;10.98;;;;;;;12.57;86.55;100592.20;1824928;78;21442;-82
2022/10/30 05:13:21;;;;;;;12.33;10.58;;;;;;;12.59;86.50;100589.84;1824916;78;20974;-85
2022/10/30 05:15:49;;;;;;;14.63;11.48;;;;;;;12.60;86.43;100586.72;1825248;78;21781;-85
2022/10/30 05:18:16;;;;;;;17.65;11.57;;;;;;;12.61;86.37;100583.16;1824960;78;21473;-85
2022/10/30 05:20:48;;;;;;;16.32;11.80;;;;;;;12.63;86.32;100566.80;1826482;78;21325;-84
2022/10/30 05:23:16;;;;;;;17.10;10.85;;;;;;;12.63;86.23;100561.06;1825651;78;20860;-84
2022/10/30 05:25:44;;;;;;;16.48;11.25;;;;;;;12.65;86.19;100558.33;1825228;78;20883;-85
2022/10/30 05:28:11;;;;;;;16.32;10.85;;;;;;;12.65;86.07;100557.02;1825412;78;21258;-84
2022/10/30 05:30:40;;;;;;;13.30;10.50;;;;;;;12.65;86.06;100555.22;1824672;78;21436;-85
2022/10/30 05:33:10;;;;;;;12.93;9.90;;;;;;;12.65;86.11;100555.70;1824284;78;21428;-84
2022/10/30 05:35:39;;;;;;;16.27;11.30;;;;;;;12.66;86.04;100581.05;1797613;78;21017;-84
2022/10/30 05:38:06;;;;;;;13.90;11.35;;;;;;;12.67;86.10;100615.60;1825081;78;21301;-85
2022/10/30 05:40:34;;;;;;;15.28;10.63;;;;;;;12.68;86.12;100630.46;1824996;78;21226;-84
2022/10/30 05:43:01;;;;;;;15.00;10.25;;;;;;;12.69;86.13;100623.41;1821914;78;20943;-84
2022/10/30 05:45:30;;;;;;;14.50;10.48;;;;;;;12.68;86.06;100594.94;1821745;78;20993;-82
2022/10/30 05:48:04;;;;;;;18.65;11.80;;;;;;;12.70;86.00;100619.36;1821731;78;20959;-80
2022/10/30 05:50:33;;;;;;;18.12;12.23;;;;;;;12.71;86.02;100590.77;1821466;78;20955;-83
2022/10/30 05:53:17;;;;;;;17.23;11.85;;;;;;;12.72;86.00;100535.06;1821604;78;21886;-86
2022/10/30 05:55:45;;;;;;;15.03;11.70;;;;;;;12.72;86.14;100562.20;1821474;78;20879;-83
2022/10/30 05:58:13;;;;;;;19.62;11.75;;;;;;;12.73;86.31;100588.04;1819766;78;21294;-82
2022/10/30 06:00:43;;;;;;;16.00;12.03;;;;;;;12.71;86.53;100591.25;1821378;78;20959;-83
2022/10/30 06:03:11;;;;;;;19.37;14.73;;;;;;;12.71;86.81;100605.23;1821587;78;20978;-86
2022/10/30 06:05:44;;;;;;;22.32;17.60;;;;;;;12.71;87.12;100593.40;1822718;78;21149;-85
2022/10/30 06:08:10;;;;;;;16.82;14.58;;;;;;;12.71;87.32;100607.03;1824733;78;20963;-84
2022/10/30 06:10:38;;;;;;;16.02;11.70;;;;;;;12.71;87.52;100596.03;1824667;77;20923;-84
2022/10/30 06:13:08;;;;;;;17.75;12.35;;;;;;;12.72;87.62;100611.37;1822857;78;20918;-85
2022/10/30 06:15:55;;;;;;;18.77;12.07;;;;;;;12.69;87.68;100614.19;1818830;78;20876;-85
2022/10/30 06:18:23;;;;;;;16.97;12.35;;;;;;;12.68;87.90;100629.14;1821664;78;21079;-86
2022/10/30 06:20:54;;;;;;;14.43;12.98;;;;;;;12.67;87.97;100628.76;1821432;78;20974;-85
2022/10/30 06:23:40;;;;;;;21.93;13.85;;;;;;;12.68;88.09;100635.72;1795997;78;20924;-85
2022/10/30 06:26:21;;;;;;;20.77;13.18;;;;;;;12.68;88.15;100642.78;1746636;80;20963;-85
2022/10/30 06:28:49;;;;;;;18.55;14.55;;;;;;;12.68;88.12;100644.09;1746464;82;20899;-82
2022/10/30 06:31:16;;;;;;;21.65;13.65;;;;;;;12.67;88.12;100634.02;1746498;80;21212;-85
2022/10/30 06:33:42;;;;;;;14.45;12.00;;;;;;;12.67;88.14;100628.76;1746416;82;21015;-85
2022/10/30 06:36:10;;;;;;;15.93;12.13;;;;;;;12.70;88.15;100628.56;1746322;82;20982;-85
2022/10/30 06:38:37;;;;;;;17.30;11.70;;;;;;;12.71;88.02;100623.66;1746366;80;21412;-85
2022/10/30 06:41:04;;;;;;;17.20;11.80;;;;;;;12.73;87.92;100616.98;1746830;80;20978;-86
2022/10/30 06:43:39;;;;;;;17.23;11.43;;;;;;;12.75;87.87;100615.92;1746393;82;21198;-86
2022/10/30 06:46:16;;;;;;;13.13;11.50;;;;;;;12.79;87.84;100616.08;1746383;80;20891;-85
2022/10/30 06:48:43;;;;;;;16.07;12.07;;;;;;;12.83;87.85;100616.72;1746381;80;20907;-85
2022/10/30 06:51:11;;;;;;;14.70;11.05;;;;;;;12.86;87.75;100619.97;1746464;80;20907;-85
2022/10/30 06:53:39;;;;;;;16.93;11.50;;;;;;;12.89;87.72;100621.54;1722410;82;21020;-84
2022/10/30 06:56:24;;;;;;;19.65;11.25;;;;;;;12.91;87.67;100615.70;1746590;81;21153;-85
2022/10/30 06:58:58;;;;;;;15.10;11.65;;;;;;;12.95;87.51;100611.07;1746523;82;21037;-84
2022/10/30 07:01:36;;;;;;;19.80;13.15;;;;;;;12.98;87.37;100609.53;1761382;78;20860;-86
2022/10/30 07:04:13;;;;;;;18.73;13.65;;;;;;;12.99;87.22;100603.33;1820789;78;20892;-86
2022/10/30 07:06:41;;;;;;;16.75;13.93;;;;;;;13.00;87.16;100597.94;1821604;78;20923;-86
2022/10/30 07:09:09;;;;;;;18.57;12.43;;;;;;;13.05;87.14;100616.06;1821633;78;21846;-85
2022/10/30 07:11:39;;;;;;;19.90;12.88;;;;;;;13.10;87.06;100608.67;1821544;78;20876;-85
2022/10/30 07:14:11;;;;;;;22.05;12.28;;;;;;;13.16;86.94;100602.98;1819805;78;20967;-86
2022/10/30 07:16:49;;;;;;;16.87;13.48;;;;;;;13.22;86.68;100610.91;1804934;78;21006;-87
2022/10/30 07:19:16;;;;;;;16.95;12.28;;;;;;;13.28;86.42;100609.19;1821803;78;20848;-86
2022/10/30 07:21:44;;;;;;;17.67;14.10;;;;;;;13.34;86.23;100608.76;1821781;78;21218;-89
2022/10/30 07:24:10;;;;;;;21.17;15.20;;;;;;;13.41;86.04;100607.84;1821599;78;20966;-85
2022/10/30 07:26:39;;;;;;;22.87;14.68;;;;;;;13.47;85.81;100610.88;1818480;78;20916;-86
2022/10/30 07:29:17;;;;;;;19.02;14.23;;;;;;;13.58;85.73;100606.12;1794667;78;20959;-87
2022/10/30 07:31:48;;;;;;;20.72;13.98;;;;;;;13.73;85.54;100605.97;1821648;78;21353;-85
2022/10/30 07:34:33;;;;;;;19.05;14.55;;;;;;;13.91;85.48;100605.08;1821693;78;21787;-85
2022/10/30 07:37:07;;;;;;;18.70;13.98;;;;;;;14.05;84.74;100602.24;1813275;78;20919;-85
2022/10/30 07:39:38;;;;;;;18.60;14.00;;;;;;;14.15;83.84;100601.93;1820382;78;21484;-84
2022/10/30 07:42:16;;;;;;;22.90;14.20;;;;;;;14.21;83.23;100604.59;1820589;78;20895;-85
2022/10/30 07:44:44;;;;;;;16.25;13.15;;;;;;;14.26;82.85;100608.55;1811958;78;21010;-83
2022/10/30 07:47:15;;;;;;;16.55;12.58;;;;;;;14.31;82.62;100609.03;1823898;78;21192;-84
2022/10/30 07:49:56;;;;;;;15.40;12.50;;;;;;;14.37;82.33;100605.59;1796816;78;20919;-83
2022/10/30 07:52:23;;;;;;;23.95;15.93;;;;;;;14.40;81.93;100605.34;1825001;77;20970;-86
2022/10/30 07:54:51;;;;;;;19.40;13.85;;;;;;;14.40;81.70;100605.34;1825319;78;20998;-83
2022/10/30 07:57:26;;;;;;;23.25;14.43;;;;;;;14.42;81.47;100608.22;1791210;77;20899;-84
2022/10/30 08:00:13;;;;;;;20.60;14.65;;;;;;;14.44;81.24;100605.47;1825369;77;21290;-84
2022/10/30 08:02:39;;;;;;;17.82;15.08;;;;;;;14.45;81.05;100613.28;1825318;78;21479;-84
2022/10/30 08:05:21;;;;;;;21.93;14.98;;;;;;;14.47;80.97;100617.09;1824738;78;21416;-86
2022/10/30 08:08:01;;;;;;;21.60;14.40;;;;;;;14.50;80.96;100613.77;1757711;81;20958;-85
2022/10/30 08:10:29;;;;;;;22.93;15.68;;;;;;;14.57;81.08;100620.77;1758156;81;20935;-85
2022/10/30 08:12:57;;;;;;;22.00;14.10;;;;;;;14.67;80.90;100628.34;1758085;81;21928;-85
2022/10/30 08:15:24;;;;;;;21.10;14.50;;;;;;;14.78;80.49;100616.92;1759015;81;20962;-84
2022/10/30 08:17:52;;;;;;;23.22;14.15;;;;;;;14.89;80.03;100612.14;1734013;81;20943;-86
2022/10/30 08:20:23;;;;;;;23.25;13.90;;;;;;;15.00;79.81;100614.77;1758368;81;20994;-85
2022/10/30 08:22:55;;;;;;;20.30;13.53;;;;;;;15.26;78.74;100618.48;1758102;81;20991;-85
2022/10/30 08:25:26;;;;;;;19.73;13.28;;;;;;;15.26;78.74;100618.48;1758270;81;21508;-84
2022/10/30 08:28:05;;;;;;;20.75;14.18;;;;;;;15.37;78.50;100617.63;1758020;81;21523;-82
2022/10/30 08:30:37;;;;;;;21.57;14.33;;;;;;;15.45;77.88;100616.52;1758073;81;20887;-84
2022/10/30 08:33:08;;;;;;;17.25;12.65;;;;;;;15.52;77.69;100630.45;1758162;81;20973;-82
2022/10/30 08:35:56;;;;;;;19.87;11.65;;;;;;;15.65;77.57;100618.41;1758103;81;20897;-82
2022/10/30 08:38:22;;;;;;;18.98;11.88;;;;;;;15.82;76.21;100618.36;1758108;81;21158;-83
2022/10/30 08:40:51;;;;;;;16.57;12.85;;;;;;;16.15;75.93;100625.80;1756575;81;20947;-83
2022/10/30 08:43:18;;;;;;;24.50;13.80;;;;;;;16.43;74.11;100623.01;1771969;78;20891;-85
2022/10/30 08:45:45;;;;;;;25.97;16.07;;;;;;;16.65;72.49;100622.02;1824819;78;21116;-82
2022/10/30 08:48:15;;;;;;;19.55;13.05;;;;;;;16.91;71.90;100626.41;1825032;78;20959;-84
2022/10/30 08:50:43;;;;;;;17.07;12.33;;;;;;;17.12;71.27;100626.83;1825048;78;21795;-85
2022/10/30 08:53:12;;;;;;;20.48;12.45;;;;;;;17.42;69.87;100627.27;1824946;78;21286;-85
2022/10/30 08:55:39;;;;;;;20.52;12.80;;;;;;;17.73;69.39;100628.52;1824847;78;20959;-84
2022/10/30 08:58:08;;;;;;;18.67;11.28;;;;;;;18.11;68.16;100628.20;1824351;78;20919;-83
2022/10/30 09:00:36;;;;;;;22.40;11.80;;;;;;;18.29;66.24;100625.17;1824950;78;20877;-83
2022/10/30 09:03:12;;;;;;;14.38;10.30;;;;;;;18.37;65.12;100629.29;1825083;78;21095;-86
2022/10/30 09:05:42;;;;;;;10.72;7.87;;;;;;;18.40;65.07;100624.18;1825102;78;20927;-84
2022/10/30 09:08:20;;;;;;;14.45;8.40;;;;;;;18.38;63.44;100622.98;1820988;78;20998;-84
2022/10/30 09:10:58;;;;;;;13.70;5.78;;;;;;;18.33;62.75;100619.93;1793738;78;20978;-83
2022/10/30 09:13:25;;;;;;;6.65;5.45;;;;;;;18.28;62.09;100618.20;1826558;78;20927;-83
2022/10/30 09:15:53;;;;;;;4.97;4.50;;;;;;;18.20;61.66;100619.39;1827759;77;21088;-85
2022/10/30 09:18:19;;;;;;;8.90;5.10;;;;;;;18.08;60.28;100615.23;1827577;77;20943;-84
2022/10/30 09:20:48;;;;;;;8.60;5.25;;;;;;;17.99;60.28;100616.91;1827599;78;20883;-85
2022/10/30 09:23:15;;;;;;;6.80;4.62;;;;;;;18.30;60.58;100622.05;1827634;77;20986;-83
2022/10/30 09:25:44;;;;;;;7.25;4.25;;;;;;;18.64;59.25;100616.56;1800798;78;20841;-82
2022/10/30 09:28:21;;;;;;;7.42;5.05;;;;;;;18.97;57.71;100623.69;1825049;77;21154;-84
2022/10/30 09:30:55;;;;;;;8.88;4.22;;;;;;;19.49;56.46;100618.31;1778662;77;21024;-84
2022/10/30 09:33:23;;;;;;;7.62;4.20;;;;;;;19.96;54.35;100610.97;1800854;78;20947;-85
2022/10/30 09:36:09;;;;;;;6.40;4.40;;;;;;;20.26;52.81;100605.72;1827893;77;20908;-85
2022/10/30 09:38:35;;;;;;;7.97;3.72;;;;;;;20.38;52.00;100616.13;1828141;77;20939;-84
2022/10/30 09:41:27;;;;;;;7.35;4.20;;;;;;;20.48;51.29;100623.03;1800513;78;21051;-83
2022/10/30 09:44:21;;;;;;;6.17;3.72;;;;;;;20.44;50.52;100615.00;1826142;78;20908;-83
2022/10/30 09:47:25;;;;;;;8.50;5.65;;;;;;;20.36;50.17;100612.77;1825345;78;21539;-86
2022/10/30 09:50:03;;;;;;;7.12;4.25;;;;;;;20.34;50.55;100610.26;1825605;78;20946;-85
2022/10/30 09:52:47;;;;;;;5.30;3.83;;;;;;;20.34;50.29;100612.09;1825095;78;20962;-84
2022/10/30 09:58:12;;;;;;;7.60;4.55;;;;;;;20.20;48.92;100606.34;1798422;79;22522;-84
2022/10/30 10:00:45;;;;;;;6.85;4.12;;;;;;;20.06;49.63;100607.73;1696088;84;20955;-85
2022/10/30 10:03:50;;;;;;;12.65;5.12;;;;;;;20.09;49.60;100604.75;1663510;84;21502;-84
2022/10/30 10:06:37;;;;;;;6.10;4.55;;;;;;;20.13;49.90;100604.46;1711439;83;20984;-83
2022/10/30 10:09:10;;;;;;;4.87;4.37;;;;;;;20.43;49.69;100600.50;1668151;84;21043;-84
2022/10/30 10:12:10;;;;;;;8.93;4.65;;;;;;;20.70;49.42;100609.70;1695862;83;21065;-84
2022/10/30 10:14:42;;;;;;;7.60;5.22;;;;;;;20.63;48.20;100606.00;1668401;84;20979;-84
2022/10/30 10:17:15;;;;;;;6.80;4.92;;;;;;;20.33;48.63;100604.61;1696225;83;21828;-85
2022/10/30 10:19:54;;;;;;;7.87;5.25;;;;;;;20.25;49.84;100594.75;1696170;84;21405;-84
2022/10/30 10:22:49;;;;;;;5.92;5.33;;;;;;;20.23;49.51;100595.39;1695493;84;20888;-86
2022/10/30 10:25:19;;;;;;;8.13;4.33;;;;;;;20.13;49.22;100593.31;1696166;84;20931;-84
2022/10/30 10:28:12;;;;;;;6.35;4.58;;;;;;;20.11;49.97;100585.97;1696254;84;20937;-83
2022/10/30 10:31:09;;;;;;;7.67;5.83;;;;;;;20.29;50.12;100580.60;1696071;83;21321;-82
2022/10/30 10:34:20;;;;;;;4.60;4.17;;;;;;;20.66;49.47;100581.70;1695983;83;20939;-84
2022/10/30 10:37:16;;;;;;;8.43;4.12;;;;;;;20.89;47.75;100569.96;1696136;84;20979;-86
2022/10/30 10:40:04;;;;;;;4.97;4.12;;;;;;;21.24;48.07;100567.26;1695917;83;20947;-85
2022/10/30 10:42:45;;;;;;;6.97;4.53;;;;;;;21.47;45.91;100564.32;1695235;84;20840;-84
2022/10/30 10:45:40;;;;;;;5.30;4.03;;;;;;;21.46;46.48;100570.67;1696536;84;21848;-85
2022/10/30 10:48:55;;;;;;;5.55;4.62;;;;;;;21.53;46.28;100567.67;1698935;82;20986;-84
2022/10/30 10:51:28;;;;;;;5.22;3.65;;;;;;;21.56;45.27;100559.83;1698562;83;20998;-84
2022/10/30 10:54:02;;;;;;;4.57;3.90;;;;;;;21.42;44.42;100559.98;1699034;81;20942;-84
2022/10/30 10:56:32;;;;;;;;;;;;;;;21.22;45.32;100570.58;1694966;81;21154;-86
2022/10/30 10:59:07;;;;;;;5.92;3.90;;;;;;;21.05;45.48;100566.52;1698781;81;21065;-84
2022/10/30 11:01:39;;;;;;;4.90;4.03;;;;;;;20.86;45.55;100566.80;1683703;82;20916;-83
2022/10/30 11:04:25;;;;;;;6.95;4.55;;;;;;;20.59;46.26;100561.19;1748103;78;20983;-82
2022/10/30 11:06:53;;;;;;;6.28;4.10;;;;;;;20.39;47.25;100564.53;1748095;78;20873;-85
2022/10/30 11:09:21;;;;;;;7.50;4.40;;;;;;;20.22;47.43;100569.73;1747861;78;20984;-84
2022/10/30 11:11:49;;;;;;;7.15;4.90;;;;;;;20.06;47.82;100566.97;1711966;81;21222;-82
2022/10/30 11:14:29;;;;;;;4.22;3.87;;;;;;;19.81;48.13;100578.75;1748111;78;20952;-83
2022/10/30 11:17:18;;;;;;;7.17;5.30;;;;;;;19.49;48.36;100578.41;1746660;81;20929;-84
2022/10/30 11:19:44;;;;;;;7.30;4.95;;;;;;;19.16;48.99;100566.09;1744952;81;20956;-86
2022/10/30 11:22:23;;;;;;;9.28;4.75;;;;;;;18.82;49.58;100568.02;1745781;81;20916;-83
2022/10/30 11:24:50;;;;;;;5.37;4.10;;;;;;;18.54;49.91;100566.64;1744017;81;21262;-84
2022/10/30 11:27:29;;;;;;;8.00;4.62;;;;;;;18.30;50.93;100559.16;1745112;81;20921;-84
2022/10/30 11:30:01;;;;;;;9.80;5.08;;;;;;;18.12;51.40;100557.73;1710908;81;21438;-86
2022/10/30 11:32:29;;;;;;;11.50;4.47;;;;;;;17.92;52.09;100558.72;1709003;83;20990;-85
2022/10/30 11:35:13;;;;;;;8.65;4.17;;;;;;;17.75;52.36;100566.39;1745146;81;20976;-86
2022/10/30 11:37:42;;;;;;;4.65;3.65;;;;;;;17.42;52.60;100550.39;1743428;81;21250;-85
2022/10/30 11:40:15;;;;;;;4.78;3.92;;;;;;;17.38;53.22;100563.08;1744943;81;20897;-85
2022/10/30 11:43:01;;;;;;;6.05;3.92;;;;;;;17.32;53.50;100572.06;1709170;84;20952;-85
2022/10/30 11:45:39;;;;;;;5.10;3.77;;;;;;;17.23;53.15;100567.59;1744787;81;20928;-85